Portada
METAR-TAF:

METAR-TAF

Aeropuertos :

Trent Lott International Airport

Pascagoula, Misisipi, Estados Unidos

latitud: 30-27-49N, longitud: 088-31-55W, altitud: 5 m

Observación

El informe se hizo hace 42 minutos, a las 21:53 UTC
Viento 5 kt con dirección variable
Temperatura 23°C
Humedad 47%
Presión 1016 hPa
Visibilidad: 16.1 km
Cielo despejado

METAR: KPQL 022153Z AUTO VRB05KT 10SM CLR 23/11 A3000 RMK AO2 SLP161 T02330106

Hora: 17:35 (22:35 UTC)


TAF: falta

Observaciones y pronósticos meteorológicos de más de 4000 aeropuertos (mensajes METAR y TAF).

Los puntos amarillos y rojos representan las estaciones disponibles.

Ponga el ratón en el punto deseado para ver el nombre de la estación.

Haga clic para ver las observaciones y los pronósticos meteorológicos.

Para cambiar el mapa : haga clic en los botones verdes con una cruz de color negro para hacer un zoom, en el botón verde con un guión para alejar o en las flechas verdes para mapas adyacentes.


METAR-TAF: